sensor_id;sensor_type;location;lat;lon;timestamp;P1;durP1;ratioP1;P2;durP2;ratioP2
14817;SDS011;7500;57.698;11.986;2023-09-19T00:00:16;32.87;;;25.77;;
14817;SDS011;7500;57.698;11.986;2023-09-19T00:02:45;40.53;;;29.63;;
14817;SDS011;7500;57.698;11.986;2023-09-19T00:05:13;35.23;;;27.27;;
14817;SDS011;7500;57.698;11.986;2023-09-19T00:07:40;34.10;;;26.23;;
14817;SDS011;7500;57.698;11.986;2023-09-19T00:10:07;34.50;;;26.53;;
14817;SDS011;7500;57.698;11.986;2023-09-19T00:12:35;31.37;;;25.43;;
14817;SDS011;7500;57.698;11.986;2023-09-19T00:15:04;29.53;;;23.47;;
14817;SDS011;7500;57.698;11.986;2023-09-19T00:17:31;23.63;;;21.00;;
14817;SDS011;7500;57.698;11.986;2023-09-19T00:19:59;28.77;;;22.30;;
14817;SDS011;7500;57.698;11.986;2023-09-19T00:22:39;27.20;;;22.60;;
14817;SDS011;7500;57.698;11.986;2023-09-19T00:25:07;73.53;;;36.73;;
14817;SDS011;7500;57.698;11.986;2023-09-19T00:27:35;45.70;;;30.83;;
14817;SDS011;7500;57.698;11.986;2023-09-19T00:30:07;68.33;;;39.10;;
14817;SDS011;7500;57.698;11.986;2023-09-19T00:32:39;68.73;;;37.37;;
14817;SDS011;7500;57.698;11.986;2023-09-19T00:35:07;74.47;;;39.93;;
14817;SDS011;7500;57.698;11.986;2023-09-19T00:37:35;75.93;;;39.97;;
14817;SDS011;7500;57.698;11.986;2023-09-19T00:40:03;45.67;;;32.80;;
14817;SDS011;7500;57.698;11.986;2023-09-19T00:42:31;81.10;;;41.23;;
14817;SDS011;7500;57.698;11.986;2023-09-19T00:44:59;34.83;;;29.13;;
14817;SDS011;7500;57.698;11.986;2023-09-19T00:47:30;57.17;;;36.83;;
14817;SDS011;7500;57.698;11.986;2023-09-19T00:49:57;44.13;;;32.40;;
14817;SDS011;7500;57.698;11.986;2023-09-19T00:52:24;34.27;;;27.83;;
14817;SDS011;7500;57.698;11.986;2023-09-19T00:54:51;48.10;;;35.00;;
14817;SDS011;7500;57.698;11.986;2023-09-19T00:57:19;67.57;;;39.17;;
14817;SDS011;7500;57.698;11.986;2023-09-19T00:59:48;47.70;;;33.13;;
14817;SDS011;7500;57.698;11.986;2023-09-19T01:02:18;49.53;;;34.33;;
14817;SDS011;7500;57.698;11.986;2023-09-19T01:04:47;76.37;;;39.70;;
14817;SDS011;7500;57.698;11.986;2023-09-19T01:07:15;54.33;;;36.43;;
14817;SDS011;7500;57.698;11.986;2023-09-19T01:09:43;72.23;;;40.23;;
14817;SDS011;7500;57.698;11.986;2023-09-19T01:12:10;62.73;;;38.40;;
14817;SDS011;7500;57.698;11.986;2023-09-19T01:14:49;45.80;;;34.73;;
14817;SDS011;7500;57.698;11.986;2023-09-19T01:17:24;66.80;;;39.00;;
14817;SDS011;7500;57.698;11.986;2023-09-19T01:20:21;61.20;;;37.37;;
14817;SDS011;7500;57.698;11.986;2023-09-19T01:23:00;63.83;;;38.13;;
14817;SDS011;7500;57.698;11.986;2023-09-19T01:28:52;51.33;;;33.90;;
14817;SDS011;7500;57.698;11.986;2023-09-19T01:31:25;51.20;;;32.70;;
14817;SDS011;7500;57.698;11.986;2023-09-19T01:33:59;44.43;;;31.53;;
14817;SDS011;7500;57.698;11.986;2023-09-19T01:36:29;58.77;;;35.83;;
14817;SDS011;7500;57.698;11.986;2023-09-19T01:38:59;56.27;;;36.60;;
14817;SDS011;7500;57.698;11.986;2023-09-19T01:41:38;41.67;;;32.40;;
14817;SDS011;7500;57.698;11.986;2023-09-19T01:44:15;39.70;;;28.90;;
14817;SDS011;7500;57.698;11.986;2023-09-19T01:46:52;55.23;;;34.77;;
14817;SDS011;7500;57.698;11.986;2023-09-19T01:49:27;68.80;;;38.13;;
14817;SDS011;7500;57.698;11.986;2023-09-19T01:52:00;59.73;;;34.60;;
14817;SDS011;7500;57.698;11.986;2023-09-19T01:54:33;32.53;;;25.77;;
14817;SDS011;7500;57.698;11.986;2023-09-19T01:57:07;42.73;;;30.93;;
14817;SDS011;7500;57.698;11.986;2023-09-19T01:59:41;40.00;;;29.73;;
14817;SDS011;7500;57.698;11.986;2023-09-19T02:02:15;42.97;;;29.53;;
14817;SDS011;7500;57.698;11.986;2023-09-19T02:04:44;62.83;;;36.37;;
14817;SDS011;7500;57.698;11.986;2023-09-19T02:07:10;44.67;;;30.83;;
14817;SDS011;7500;57.698;11.986;2023-09-19T02:09:37;50.40;;;33.90;;
14817;SDS011;7500;57.698;11.986;2023-09-19T02:12:05;64.67;;;38.23;;
14817;SDS011;7500;57.698;11.986;2023-09-19T02:14:33;39.90;;;30.80;;
14817;SDS011;7500;57.698;11.986;2023-09-19T02:17:01;33.97;;;26.13;;
14817;SDS011;7500;57.698;11.986;2023-09-19T02:19:30;42.57;;;31.47;;
14817;SDS011;7500;57.698;11.986;2023-09-19T02:21:59;46.43;;;32.70;;
14817;SDS011;7500;57.698;11.986;2023-09-19T02:24:27;42.63;;;32.13;;
14817;SDS011;7500;57.698;11.986;2023-09-19T02:26:53;43.43;;;33.90;;
14817;SDS011;7500;57.698;11.986;2023-09-19T02:29:21;48.00;;;34.77;;
14817;SDS011;7500;57.698;11.986;2023-09-19T02:31:48;51.23;;;34.53;;
14817;SDS011;7500;57.698;11.986;2023-09-19T02:34:15;45.57;;;33.63;;
14817;SDS011;7500;57.698;11.986;2023-09-19T02:36:44;36.50;;;29.93;;
14817;SDS011;7500;57.698;11.986;2023-09-19T02:39:11;33.43;;;26.53;;
14817;SDS011;7500;57.698;11.986;2023-09-19T02:41:38;25.20;;;20.40;;
14817;SDS011;7500;57.698;11.986;2023-09-19T02:44:06;32.77;;;22.30;;
14817;SDS011;7500;57.698;11.986;2023-09-19T02:46:34;26.33;;;21.80;;
14817;SDS011;7500;57.698;11.986;2023-09-19T02:49:02;25.90;;;20.63;;
14817;SDS011;7500;57.698;11.986;2023-09-19T02:51:30;20.77;;;17.10;;
14817;SDS011;7500;57.698;11.986;2023-09-19T02:53:59;23.47;;;18.83;;
14817;SDS011;7500;57.698;11.986;2023-09-19T02:56:28;25.03;;;18.57;;
14817;SDS011;7500;57.698;11.986;2023-09-19T02:58:55;19.80;;;15.30;;
14817;SDS011;7500;57.698;11.986;2023-09-19T03:01:23;18.17;;;14.57;;
14817;SDS011;7500;57.698;11.986;2023-09-19T03:03:50;18.10;;;13.37;;
14817;SDS011;7500;57.698;11.986;2023-09-19T03:06:17;21.50;;;13.57;;
14817;SDS011;7500;57.698;11.986;2023-09-19T03:08:45;14.20;;;12.00;;
14817;SDS011;7500;57.698;11.986;2023-09-19T03:11:15;15.77;;;11.97;;
14817;SDS011;7500;57.698;11.986;2023-09-19T03:13:50;17.23;;;13.20;;
14817;SDS011;7500;57.698;11.986;2023-09-19T03:16:17;16.30;;;11.03;;
14817;SDS011;7500;57.698;11.986;2023-09-19T03:18:47;12.40;;;10.07;;
14817;SDS011;7500;57.698;11.986;2023-09-19T03:21:14;11.97;;;9.63;;
14817;SDS011;7500;57.698;11.986;2023-09-19T03:23:42;12.97;;;8.67;;
14817;SDS011;7500;57.698;11.986;2023-09-19T03:26:10;12.53;;;8.93;;
14817;SDS011;7500;57.698;11.986;2023-09-19T03:28:41;12.33;;;7.63;;
14817;SDS011;7500;57.698;11.986;2023-09-19T03:31:08;13.50;;;8.47;;
14817;SDS011;7500;57.698;11.986;2023-09-19T03:33:36;14.60;;;7.97;;
14817;SDS011;7500;57.698;11.986;2023-09-19T03:36:03;10.90;;;6.60;;
14817;SDS011;7500;57.698;11.986;2023-09-19T03:38:31;10.17;;;6.50;;
14817;SDS011;7500;57.698;11.986;2023-09-19T03:40:58;12.67;;;6.83;;
14817;SDS011;7500;57.698;11.986;2023-09-19T03:43:26;13.40;;;6.33;;
14817;SDS011;7500;57.698;11.986;2023-09-19T03:45:54;13.53;;;6.43;;
14817;SDS011;7500;57.698;11.986;2023-09-19T03:48:21;15.97;;;6.50;;
14817;SDS011;7500;57.698;11.986;2023-09-19T03:50:48;11.10;;;5.80;;
14817;SDS011;7500;57.698;11.986;2023-09-19T03:53:15;8.87;;;4.40;;
14817;SDS011;7500;57.698;11.986;2023-09-19T03:55:44;10.00;;;4.57;;
14817;SDS011;7500;57.698;11.986;2023-09-19T03:58:11;11.70;;;4.20;;
14817;SDS011;7500;57.698;11.986;2023-09-19T04:00:38;10.77;;;3.77;;
14817;SDS011;7500;57.698;11.986;2023-09-19T04:03:06;10.13;;;4.03;;
14817;SDS011;7500;57.698;11.986;2023-09-19T04:05:33;10.73;;;4.13;;
14817;SDS011;7500;57.698;11.986;2023-09-19T04:08:00;15.10;;;4.30;;
14817;SDS011;7500;57.698;11.986;2023-09-19T04:10:27;15.00;;;4.20;;
14817;SDS011;7500;57.698;11.986;2023-09-19T04:12:55;13.40;;;4.17;;
14817;SDS011;7500;57.698;11.986;2023-09-19T04:15:22;14.97;;;4.40;;
14817;SDS011;7500;57.698;11.986;2023-09-19T04:17:49;11.23;;;3.90;;
14817;SDS011;7500;57.698;11.986;2023-09-19T04:20:18;10.47;;;3.73;;
14817;SDS011;7500;57.698;11.986;2023-09-19T04:22:47;16.30;;;4.30;;
14817;SDS011;7500;57.698;11.986;2023-09-19T04:25:14;11.23;;;4.43;;
14817;SDS011;7500;57.698;11.986;2023-09-19T04:27:41;13.47;;;4.60;;
14817;SDS011;7500;57.698;11.986;2023-09-19T04:30:09;11.33;;;4.07;;
14817;SDS011;7500;57.698;11.986;2023-09-19T04:32:37;11.80;;;4.07;;
14817;SDS011;7500;57.698;11.986;2023-09-19T04:35:06;15.47;;;4.50;;
14817;SDS011;7500;57.698;11.986;2023-09-19T04:37:36;13.17;;;3.80;;
14817;SDS011;7500;57.698;11.986;2023-09-19T04:40:05;10.87;;;3.27;;
14817;SDS011;7500;57.698;11.986;2023-09-19T04:42:38;12.83;;;3.50;;
14817;SDS011;7500;57.698;11.986;2023-09-19T04:45:06;9.83;;;2.80;;
14817;SDS011;7500;57.698;11.986;2023-09-19T04:47:34;10.50;;;2.90;;
14817;SDS011;7500;57.698;11.986;2023-09-19T04:50:04;6.70;;;2.40;;
14817;SDS011;7500;57.698;11.986;2023-09-19T04:52:39;16.60;;;3.07;;
14817;SDS011;7500;57.698;11.986;2023-09-19T04:55:09;6.53;;;2.10;;
14817;SDS011;7500;57.698;11.986;2023-09-19T04:57:42;7.93;;;2.47;;
14817;SDS011;7500;57.698;11.986;2023-09-19T05:00:11;11.53;;;2.10;;
14817;SDS011;7500;57.698;11.986;2023-09-19T05:02:40;6.60;;;1.80;;
14817;SDS011;7500;57.698;11.986;2023-09-19T05:05:07;5.50;;;1.87;;
14817;SDS011;7500;57.698;11.986;2023-09-19T05:07:35;5.27;;;1.67;;
14817;SDS011;7500;57.698;11.986;2023-09-19T05:10:04;4.97;;;1.50;;
14817;SDS011;7500;57.698;11.986;2023-09-19T05:12:32;4.53;;;1.67;;
14817;SDS011;7500;57.698;11.986;2023-09-19T05:15:00;4.80;;;1.70;;
14817;SDS011;7500;57.698;11.986;2023-09-19T05:17:28;5.43;;;1.87;;
14817;SDS011;7500;57.698;11.986;2023-09-19T05:19:55;4.63;;;1.67;;
14817;SDS011;7500;57.698;11.986;2023-09-19T05:22:23;5.77;;;1.70;;
14817;SDS011;7500;57.698;11.986;2023-09-19T05:24:50;6.37;;;1.87;;
14817;SDS011;7500;57.698;11.986;2023-09-19T05:27:19;10.47;;;2.47;;
14817;SDS011;7500;57.698;11.986;2023-09-19T05:29:47;7.93;;;1.90;;
14817;SDS011;7500;57.698;11.986;2023-09-19T05:32:16;6.80;;;1.63;;
14817;SDS011;7500;57.698;11.986;2023-09-19T05:34:44;9.20;;;2.07;;
14817;SDS011;7500;57.698;11.986;2023-09-19T05:37:12;8.90;;;2.37;;
14817;SDS011;7500;57.698;11.986;2023-09-19T05:39:40;9.83;;;2.10;;
14817;SDS011;7500;57.698;11.986;2023-09-19T05:42:07;6.47;;;1.70;;
14817;SDS011;7500;57.698;11.986;2023-09-19T05:44:36;5.67;;;1.67;;
14817;SDS011;7500;57.698;11.986;2023-09-19T05:47:03;6.07;;;1.70;;
14817;SDS011;7500;57.698;11.986;2023-09-19T05:49:30;7.27;;;2.03;;
14817;SDS011;7500;57.698;11.986;2023-09-19T05:51:57;5.60;;;1.53;;
14817;SDS011;7500;57.698;11.986;2023-09-19T05:54:26;4.13;;;1.60;;
14817;SDS011;7500;57.698;11.986;2023-09-19T05:56:53;6.90;;;1.73;;
14817;SDS011;7500;57.698;11.986;2023-09-19T05:59:20;5.93;;;1.80;;
14817;SDS011;7500;57.698;11.986;2023-09-19T06:01:49;5.30;;;1.60;;
14817;SDS011;7500;57.698;11.986;2023-09-19T06:04:17;6.73;;;2.10;;
14817;SDS011;7500;57.698;11.986;2023-09-19T06:06:44;5.83;;;1.50;;
14817;SDS011;7500;57.698;11.986;2023-09-19T06:09:13;6.77;;;1.87;;
14817;SDS011;7500;57.698;11.986;2023-09-19T06:11:41;6.10;;;1.80;;
14817;SDS011;7500;57.698;11.986;2023-09-19T06:14:08;5.13;;;1.83;;
14817;SDS011;7500;57.698;11.986;2023-09-19T06:16:35;2.53;;;1.33;;
14817;SDS011;7500;57.698;11.986;2023-09-19T06:19:04;4.53;;;1.57;;
14817;SDS011;7500;57.698;11.986;2023-09-19T06:21:34;3.77;;;1.47;;
14817;SDS011;7500;57.698;11.986;2023-09-19T06:24:01;7.33;;;1.50;;
14817;SDS011;7500;57.698;11.986;2023-09-19T06:26:28;6.20;;;1.63;;
14817;SDS011;7500;57.698;11.986;2023-09-19T06:28:56;3.77;;;1.43;;
14817;SDS011;7500;57.698;11.986;2023-09-19T06:31:23;4.37;;;1.57;;
14817;SDS011;7500;57.698;11.986;2023-09-19T06:33:51;3.37;;;1.20;;
14817;SDS011;7500;57.698;11.986;2023-09-19T06:36:19;2.67;;;0.97;;
14817;SDS011;7500;57.698;11.986;2023-09-19T06:38:47;4.33;;;1.20;;
14817;SDS011;7500;57.698;11.986;2023-09-19T06:41:16;6.20;;;1.57;;
14817;SDS011;7500;57.698;11.986;2023-09-19T06:43:43;4.37;;;1.50;;
14817;SDS011;7500;57.698;11.986;2023-09-19T06:46:10;3.80;;;1.50;;
14817;SDS011;7500;57.698;11.986;2023-09-19T06:48:37;7.10;;;1.67;;
14817;SDS011;7500;57.698;11.986;2023-09-19T06:51:04;5.10;;;1.90;;
14817;SDS011;7500;57.698;11.986;2023-09-19T06:53:33;5.50;;;1.80;;
14817;SDS011;7500;57.698;11.986;2023-09-19T06:56:01;6.57;;;1.60;;
14817;SDS011;7500;57.698;11.986;2023-09-19T06:58:28;3.60;;;1.60;;
14817;SDS011;7500;57.698;11.986;2023-09-19T07:00:56;5.67;;;1.80;;
14817;SDS011;7500;57.698;11.986;2023-09-19T07:03:23;5.70;;;2.10;;
14817;SDS011;7500;57.698;11.986;2023-09-19T07:05:52;8.07;;;2.30;;
14817;SDS011;7500;57.698;11.986;2023-09-19T07:08:21;5.23;;;1.97;;
14817;SDS011;7500;57.698;11.986;2023-09-19T07:10:49;4.63;;;1.80;;
14817;SDS011;7500;57.698;11.986;2023-09-19T07:13:17;8.67;;;1.90;;
14817;SDS011;7500;57.698;11.986;2023-09-19T07:15:44;5.33;;;2.00;;
14817;SDS011;7500;57.698;11.986;2023-09-19T07:18:12;6.10;;;2.20;;
14817;SDS011;7500;57.698;11.986;2023-09-19T07:20:41;9.67;;;2.30;;
14817;SDS011;7500;57.698;11.986;2023-09-19T07:23:14;7.30;;;2.40;;
14817;SDS011;7500;57.698;11.986;2023-09-19T07:25:41;6.07;;;2.13;;
14817;SDS011;7500;57.698;11.986;2023-09-19T07:28:09;7.27;;;1.90;;
14817;SDS011;7500;57.698;11.986;2023-09-19T07:30:36;7.97;;;2.00;;
14817;SDS011;7500;57.698;11.986;2023-09-19T07:33:04;8.17;;;2.30;;
14817;SDS011;7500;57.698;11.986;2023-09-19T07:35:31;7.33;;;2.30;;
14817;SDS011;7500;57.698;11.986;2023-09-19T07:37:59;6.10;;;1.90;;
14817;SDS011;7500;57.698;11.986;2023-09-19T07:40:27;4.50;;;2.00;;
14817;SDS011;7500;57.698;11.986;2023-09-19T07:42:55;8.80;;;2.00;;
14817;SDS011;7500;57.698;11.986;2023-09-19T07:45:23;5.60;;;2.20;;
14817;SDS011;7500;57.698;11.986;2023-09-19T07:47:50;5.37;;;1.73;;
14817;SDS011;7500;57.698;11.986;2023-09-19T07:50:18;4.87;;;1.67;;
14817;SDS011;7500;57.698;11.986;2023-09-19T07:52:46;7.13;;;2.30;;
14817;SDS011;7500;57.698;11.986;2023-09-19T07:55:16;6.90;;;2.07;;
14817;SDS011;7500;57.698;11.986;2023-09-19T07:57:44;7.73;;;1.90;;
14817;SDS011;7500;57.698;11.986;2023-09-19T08:00:12;9.13;;;2.00;;
14817;SDS011;7500;57.698;11.986;2023-09-19T08:02:42;6.97;;;1.90;;
14817;SDS011;7500;57.698;11.986;2023-09-19T08:05:10;5.87;;;1.90;;
14817;SDS011;7500;57.698;11.986;2023-09-19T08:07:41;9.53;;;2.37;;
14817;SDS011;7500;57.698;11.986;2023-09-19T08:10:08;10.77;;;2.43;;
14817;SDS011;7500;57.698;11.986;2023-09-19T08:12:38;6.40;;;2.50;;
14817;SDS011;7500;57.698;11.986;2023-09-19T08:15:11;7.77;;;2.30;;
14817;SDS011;7500;57.698;11.986;2023-09-19T08:17:39;8.40;;;2.43;;
14817;SDS011;7500;57.698;11.986;2023-09-19T08:20:08;8.70;;;2.43;;
14817;SDS011;7500;57.698;11.986;2023-09-19T08:22:42;9.27;;;2.60;;
14817;SDS011;7500;57.698;11.986;2023-09-19T08:25:12;7.60;;;2.47;;
14817;SDS011;7500;57.698;11.986;2023-09-19T08:27:41;10.20;;;2.80;;
14817;SDS011;7500;57.698;11.986;2023-09-19T08:30:09;9.80;;;3.07;;
14817;SDS011;7500;57.698;11.986;2023-09-19T08:32:36;7.37;;;2.83;;
14817;SDS011;7500;57.698;11.986;2023-09-19T08:35:04;9.80;;;2.53;;
14817;SDS011;7500;57.698;11.986;2023-09-19T08:37:34;9.73;;;2.70;;
14817;SDS011;7500;57.698;11.986;2023-09-19T08:40:00;8.63;;;2.30;;
14817;SDS011;7500;57.698;11.986;2023-09-19T08:42:28;6.77;;;2.50;;
14817;SDS011;7500;57.698;11.986;2023-09-19T08:44:55;8.13;;;2.20;;
14817;SDS011;7500;57.698;11.986;2023-09-19T08:47:28;5.67;;;2.20;;
14817;SDS011;7500;57.698;11.986;2023-09-19T08:50:01;7.90;;;2.00;;
14817;SDS011;7500;57.698;11.986;2023-09-19T08:52:42;6.87;;;2.20;;
14817;SDS011;7500;57.698;11.986;2023-09-19T08:55:12;9.20;;;2.20;;
14817;SDS011;7500;57.698;11.986;2023-09-19T08:57:46;10.57;;;2.47;;
14817;SDS011;7500;57.698;11.986;2023-09-19T09:00:15;5.40;;;2.00;;
14817;SDS011;7500;57.698;11.986;2023-09-19T09:02:45;5.13;;;1.80;;
14817;SDS011;7500;57.698;11.986;2023-09-19T09:05:14;6.80;;;1.80;;
14817;SDS011;7500;57.698;11.986;2023-09-19T09:07:49;7.70;;;1.93;;
14817;SDS011;7500;57.698;11.986;2023-09-19T09:10:17;5.40;;;2.00;;
14817;SDS011;7500;57.698;11.986;2023-09-19T09:12:47;8.13;;;2.27;;
14817;SDS011;7500;57.698;11.986;2023-09-19T09:15:15;9.07;;;2.30;;
14817;SDS011;7500;57.698;11.986;2023-09-19T09:17:48;7.50;;;2.30;;
14817;SDS011;7500;57.698;11.986;2023-09-19T09:20:16;5.43;;;2.07;;
14817;SDS011;7500;57.698;11.986;2023-09-19T09:22:54;4.73;;;1.57;;
14817;SDS011;7500;57.698;11.986;2023-09-19T09:25:25;5.40;;;1.80;;
14817;SDS011;7500;57.698;11.986;2023-09-19T09:28:20;3.47;;;1.47;;
14817;SDS011;7500;57.698;11.986;2023-09-19T09:30:48;3.97;;;1.50;;
14817;SDS011;7500;57.698;11.986;2023-09-19T09:33:16;3.50;;;1.63;;
14817;SDS011;7500;57.698;11.986;2023-09-19T09:35:50;5.50;;;1.50;;
14817;SDS011;7500;57.698;11.986;2023-09-19T09:38:23;5.40;;;1.50;;
14817;SDS011;7500;57.698;11.986;2023-09-19T09:40:57;4.60;;;1.37;;
14817;SDS011;7500;57.698;11.986;2023-09-19T09:43:32;14.13;;;3.43;;
14817;SDS011;7500;57.698;11.986;2023-09-19T09:46:11;17.23;;;4.50;;
14817;SDS011;7500;57.698;11.986;2023-09-19T09:48:57;20.60;;;5.43;;
14817;SDS011;7500;57.698;11.986;2023-09-19T09:51:43;5.80;;;1.90;;
14817;SDS011;7500;57.698;11.986;2023-09-19T09:54:14;6.73;;;1.50;;
14817;SDS011;7500;57.698;11.986;2023-09-19T09:56:55;4.70;;;1.37;;
14817;SDS011;7500;57.698;11.986;2023-09-19T10:02:16;4.67;;;1.60;;
14817;SDS011;7500;57.698;11.986;2023-09-19T10:04:50;4.83;;;1.60;;
14817;SDS011;7500;57.698;11.986;2023-09-19T10:07:25;8.33;;;1.97;;
14817;SDS011;7500;57.698;11.986;2023-09-19T10:09:58;6.53;;;1.70;;
14817;SDS011;7500;57.698;11.986;2023-09-19T10:12:35;4.37;;;1.57;;
14817;SDS011;7500;57.698;11.986;2023-09-19T10:15:05;6.77;;;1.83;;
14817;SDS011;7500;57.698;11.986;2023-09-19T10:17:36;5.93;;;2.13;;
14817;SDS011;7500;57.698;11.986;2023-09-19T10:20:03;3.67;;;1.73;;
14817;SDS011;7500;57.698;11.986;2023-09-19T10:22:42;4.33;;;1.30;;
14817;SDS011;7500;57.698;11.986;2023-09-19T10:25:23;4.27;;;1.50;;
14817;SDS011;7500;57.698;11.986;2023-09-19T10:27:53;3.37;;;1.50;;
14817;SDS011;7500;57.698;11.986;2023-09-19T10:30:22;4.27;;;1.17;;
14817;SDS011;7500;57.698;11.986;2023-09-19T10:32:53;4.67;;;1.60;;
14817;SDS011;7500;57.698;11.986;2023-09-19T10:35:26;3.83;;;1.40;;
14817;SDS011;7500;57.698;11.986;2023-09-19T10:37:54;5.10;;;1.70;;
14817;SDS011;7500;57.698;11.986;2023-09-19T10:40:24;4.83;;;1.63;;
14817;SDS011;7500;57.698;11.986;2023-09-19T10:42:58;3.60;;;1.27;;
14817;SDS011;7500;57.698;11.986;2023-09-19T10:45:30;5.17;;;1.40;;
14817;SDS011;7500;57.698;11.986;2023-09-19T10:47:58;3.33;;;1.20;;
14817;SDS011;7500;57.698;11.986;2023-09-19T10:50:25;5.27;;;1.40;;
14817;SDS011;7500;57.698;11.986;2023-09-19T10:52:56;5.47;;;1.47;;
14817;SDS011;7500;57.698;11.986;2023-09-19T10:55:31;5.20;;;1.63;;
14817;SDS011;7500;57.698;11.986;2023-09-19T10:58:00;5.63;;;1.83;;
14817;SDS011;7500;57.698;11.986;2023-09-19T11:00:49;3.23;;;1.30;;
14817;SDS011;7500;57.698;11.986;2023-09-19T11:03:18;4.57;;;1.53;;
14817;SDS011;7500;57.698;11.986;2023-09-19T11:06:05;4.70;;;1.30;;
14817;SDS011;7500;57.698;11.986;2023-09-19T11:08:52;6.70;;;1.30;;
14817;SDS011;7500;57.698;11.986;2023-09-19T11:11:46;8.67;;;1.50;;
14817;SDS011;7500;57.698;11.986;2023-09-19T11:14:28;7.73;;;1.70;;
14817;SDS011;7500;57.698;11.986;2023-09-19T11:25:52;5.40;;;1.40;;
14817;SDS011;7500;57.698;11.986;2023-09-19T11:28:34;3.37;;;1.30;;
14817;SDS011;7500;57.698;11.986;2023-09-19T11:40:33;3.90;;;1.10;;
14817;SDS011;7500;57.698;11.986;2023-09-19T11:43:01;4.07;;;1.40;;
14817;SDS011;7500;57.698;11.986;2023-09-19T11:46:06;3.40;;;1.30;;
14817;SDS011;7500;57.698;11.986;2023-09-19T11:48:38;3.00;;;0.90;;
14817;SDS011;7500;57.698;11.986;2023-09-19T11:53:55;5.00;;;1.77;;
14817;SDS011;7500;57.698;11.986;2023-09-19T11:56:25;2.23;;;1.00;;
14817;SDS011;7500;57.698;11.986;2023-09-19T11:58:54;5.80;;;1.17;;
14817;SDS011;7500;57.698;11.986;2023-09-19T12:01:25;3.13;;;1.10;;
14817;SDS011;7500;57.698;11.986;2023-09-19T12:03:57;2.27;;;1.00;;
14817;SDS011;7500;57.698;11.986;2023-09-19T12:06:25;4.23;;;1.53;;
14817;SDS011;7500;57.698;11.986;2023-09-19T12:08:54;4.07;;;1.33;;
14817;SDS011;7500;57.698;11.986;2023-09-19T12:11:22;2.87;;;1.23;;
14817;SDS011;7500;57.698;11.986;2023-09-19T12:13:52;6.93;;;1.70;;
14817;SDS011;7500;57.698;11.986;2023-09-19T12:16:23;2.87;;;1.30;;
14817;SDS011;7500;57.698;11.986;2023-09-19T12:18:51;4.63;;;1.60;;
14817;SDS011;7500;57.698;11.986;2023-09-19T12:21:25;7.13;;;1.20;;
14817;SDS011;7500;57.698;11.986;2023-09-19T12:24:06;3.73;;;1.40;;
14817;SDS011;7500;57.698;11.986;2023-09-19T12:26:41;6.80;;;1.60;;
14817;SDS011;7500;57.698;11.986;2023-09-19T12:29:13;5.20;;;1.30;;
14817;SDS011;7500;57.698;11.986;2023-09-19T12:31:50;4.77;;;1.50;;
14817;SDS011;7500;57.698;11.986;2023-09-19T12:34:20;7.20;;;1.80;;
14817;SDS011;7500;57.698;11.986;2023-09-19T12:36:48;7.90;;;1.60;;
14817;SDS011;7500;57.698;11.986;2023-09-19T12:39:22;5.43;;;1.97;;
14817;SDS011;7500;57.698;11.986;2023-09-19T12:41:51;6.57;;;1.77;;
14817;SDS011;7500;57.698;11.986;2023-09-19T12:44:19;3.80;;;1.50;;
14817;SDS011;7500;57.698;11.986;2023-09-19T12:46:51;4.77;;;1.60;;
14817;SDS011;7500;57.698;11.986;2023-09-19T12:49:19;5.93;;;1.90;;
14817;SDS011;7500;57.698;11.986;2023-09-19T12:51:48;11.87;;;1.67;;
14817;SDS011;7500;57.698;11.986;2023-09-19T12:54:16;7.33;;;1.53;;
14817;SDS011;7500;57.698;11.986;2023-09-19T12:56:43;6.27;;;1.80;;
14817;SDS011;7500;57.698;11.986;2023-09-19T12:59:13;5.97;;;1.80;;
14817;SDS011;7500;57.698;11.986;2023-09-19T13:01:40;8.47;;;1.80;;
14817;SDS011;7500;57.698;11.986;2023-09-19T13:04:16;7.63;;;1.70;;
14817;SDS011;7500;57.698;11.986;2023-09-19T13:06:51;4.90;;;1.77;;
14817;SDS011;7500;57.698;11.986;2023-09-19T13:09:20;5.73;;;1.27;;
14817;SDS011;7500;57.698;11.986;2023-09-19T13:11:49;5.63;;;1.67;;
14817;SDS011;7500;57.698;11.986;2023-09-19T13:14:19;5.07;;;1.70;;
14817;SDS011;7500;57.698;11.986;2023-09-19T13:16:55;5.73;;;1.80;;
14817;SDS011;7500;57.698;11.986;2023-09-19T13:19:40;6.70;;;1.60;;
14817;SDS011;7500;57.698;11.986;2023-09-19T13:25:03;8.57;;;1.80;;
14817;SDS011;7500;57.698;11.986;2023-09-19T13:27:31;4.70;;;1.87;;
14817;SDS011;7500;57.698;11.986;2023-09-19T13:29:59;7.23;;;1.93;;
14817;SDS011;7500;57.698;11.986;2023-09-19T13:32:25;6.73;;;1.60;;
14817;SDS011;7500;57.698;11.986;2023-09-19T13:34:55;5.60;;;1.30;;
14817;SDS011;7500;57.698;11.986;2023-09-19T13:37:23;5.43;;;1.70;;
14817;SDS011;7500;57.698;11.986;2023-09-19T13:39:51;2.57;;;1.30;;
14817;SDS011;7500;57.698;11.986;2023-09-19T13:42:18;5.40;;;1.60;;
14817;SDS011;7500;57.698;11.986;2023-09-19T13:44:46;5.43;;;1.40;;
14817;SDS011;7500;57.698;11.986;2023-09-19T13:47:13;2.50;;;1.10;;
14817;SDS011;7500;57.698;11.986;2023-09-19T13:49:41;4.47;;;1.43;;
14817;SDS011;7500;57.698;11.986;2023-09-19T13:52:11;4.57;;;1.40;;
14817;SDS011;7500;57.698;11.986;2023-09-19T13:54:38;5.50;;;1.50;;
14817;SDS011;7500;57.698;11.986;2023-09-19T13:57:05;3.37;;;1.40;;
14817;SDS011;7500;57.698;11.986;2023-09-19T13:59:32;5.00;;;1.50;;
14817;SDS011;7500;57.698;11.986;2023-09-19T14:01:59;4.50;;;1.60;;
14817;SDS011;7500;57.698;11.986;2023-09-19T14:04:29;4.13;;;1.57;;
14817;SDS011;7500;57.698;11.986;2023-09-19T14:06:56;4.17;;;2.00;;
14817;SDS011;7500;57.698;11.986;2023-09-19T14:09:25;8.23;;;1.80;;
14817;SDS011;7500;57.698;11.986;2023-09-19T14:11:52;5.23;;;1.43;;
14817;SDS011;7500;57.698;11.986;2023-09-19T14:14:19;3.57;;;1.40;;
14817;SDS011;7500;57.698;11.986;2023-09-19T14:16:46;6.33;;;1.97;;
14817;SDS011;7500;57.698;11.986;2023-09-19T14:19:14;5.43;;;1.50;;
14817;SDS011;7500;57.698;11.986;2023-09-19T14:21:41;9.57;;;2.40;;
14817;SDS011;7500;57.698;11.986;2023-09-19T14:24:09;6.27;;;1.80;;
14817;SDS011;7500;57.698;11.986;2023-09-19T14:26:38;6.03;;;1.50;;
14817;SDS011;7500;57.698;11.986;2023-09-19T14:29:05;9.30;;;2.10;;
14817;SDS011;7500;57.698;11.986;2023-09-19T14:31:36;6.43;;;1.90;;
14817;SDS011;7500;57.698;11.986;2023-09-19T14:34:05;8.13;;;1.83;;
14817;SDS011;7500;57.698;11.986;2023-09-19T14:36:35;8.03;;;1.83;;
14817;SDS011;7500;57.698;11.986;2023-09-19T14:39:02;7.53;;;1.87;;
14817;SDS011;7500;57.698;11.986;2023-09-19T14:41:29;6.07;;;1.80;;
14817;SDS011;7500;57.698;11.986;2023-09-19T14:43:58;6.77;;;1.90;;
14817;SDS011;7500;57.698;11.986;2023-09-19T14:46:25;6.57;;;1.57;;
14817;SDS011;7500;57.698;11.986;2023-09-19T14:48:52;4.80;;;1.47;;
14817;SDS011;7500;57.698;11.986;2023-09-19T14:51:19;6.37;;;1.73;;
14817;SDS011;7500;57.698;11.986;2023-09-19T14:53:46;6.90;;;1.70;;
14817;SDS011;7500;57.698;11.986;2023-09-19T14:56:14;8.53;;;2.40;;
14817;SDS011;7500;57.698;11.986;2023-09-19T14:58:43;9.27;;;2.63;;
14817;SDS011;7500;57.698;11.986;2023-09-19T15:01:12;10.37;;;2.60;;
14817;SDS011;7500;57.698;11.986;2023-09-19T15:03:40;11.40;;;2.10;;
14817;SDS011;7500;57.698;11.986;2023-09-19T15:06:08;5.20;;;1.97;;
14817;SDS011;7500;57.698;11.986;2023-09-19T15:08:39;9.33;;;2.53;;
14817;SDS011;7500;57.698;11.986;2023-09-19T15:11:11;6.13;;;2.30;;
14817;SDS011;7500;57.698;11.986;2023-09-19T15:13:38;7.20;;;2.10;;
14817;SDS011;7500;57.698;11.986;2023-09-19T15:16:05;5.70;;;1.70;;
14817;SDS011;7500;57.698;11.986;2023-09-19T15:18:35;7.80;;;1.90;;
14817;SDS011;7500;57.698;11.986;2023-09-19T15:21:04;11.63;;;2.23;;
14817;SDS011;7500;57.698;11.986;2023-09-19T15:23:31;5.73;;;2.03;;
14817;SDS011;7500;57.698;11.986;2023-09-19T15:25:59;6.50;;;1.90;;